Time;durP1;ratioP1;P1;durP2;ratioP2;P2;SDS_P1;SDS_P2;PMS_P1;PMS_P2;Temp;Humidity;BMP_temperature;BMP_pressure;BME280_temperature;BME280_humidity;BME280_pressure;Samples;Min_cycle;Max_cycle;Signal;HPM_P1;HPM_P2
2024/04/01 00:03:59;;;;;;;0.50;0.50;;;;;;;14.22;100.00;101592.47;10481707;28;20106;-95
2024/04/01 00:09:34;;;;;;;0.57;0.57;;;;;;;14.12;100.00;101586.13;10491950;28;20575;-92
2024/04/01 00:15:04;;;;;;;0.20;0.20;;;;;;;14.11;100.00;101586.13;10460039;28;20072;-94
2024/04/01 00:20:29;;;;;;;0.20;0.20;;;;;;;14.07;100.00;101595.78;10486071;28;20048;-92
2024/04/01 00:26:18;;;;;;;0.32;0.30;;;;;;;13.95;100.00;101601.81;10497845;28;20044;-94
2024/04/01 00:31:42;;;;;;;0.20;0.20;;;;;;;13.76;100.00;101604.16;10533636;28;20082;-95
2024/04/01 00:37:06;;;;;;;0.73;0.73;;;;;;;13.65;100.00;101601.34;10525062;28;20048;-95
2024/04/01 00:42:32;;;;;;;0.20;0.20;;;;;;;13.87;100.00;101594.59;10533734;28;20044;-95
2024/04/01 00:47:59;;;;;;;0.30;0.30;;;;;;;13.99;100.00;101586.81;10507212;28;20032;-92
2024/04/01 00:53:24;;;;;;;0.47;0.32;;;;;;;14.03;100.00;101593.97;10505424;28;20052;-95
2024/04/01 00:59:00;;;;;;;0.25;0.25;;;;;;;13.75;100.00;101597.06;10490751;28;20134;-91
2024/04/01 01:04:24;;;;;;;0.20;0.20;;;;;;;13.53;100.00;101595.81;10483553;28;20125;-92
2024/04/01 01:09:48;;;;;;;0.20;0.20;;;;;;;13.47;100.00;101593.06;10458646;28;20044;-94
2024/04/01 01:15:13;;;;;;;0.20;0.20;;;;;;;13.53;100.00;101598.47;10486842;28;20068;-93
2024/04/01 01:20:37;;;;;;;0.20;0.20;;;;;;;13.43;100.00;101600.09;10493288;28;20168;-94
2024/04/01 01:26:03;;;;;;;0.30;0.30;;;;;;;13.42;100.00;101611.56;10499647;28;20045;-94
2024/04/01 01:31:29;;;;;;;0.20;0.20;;;;;;;13.42;100.00;101610.66;10479154;28;20055;-92
2024/04/01 01:36:54;;;;;;;0.20;0.20;;;;;;;13.45;100.00;101611.63;10507869;28;20099;-94
2024/04/01 01:42:21;;;;;;;0.20;0.20;;;;;;;13.40;100.00;101613.28;10503219;28;20150;-93
2024/04/01 01:47:44;;;;;;;0.20;0.20;;;;;;;13.36;100.00;101610.56;10499016;28;20059;-94
2024/04/01 01:53:11;;;;;;;0.28;0.28;;;;;;;13.23;100.00;101611.19;10533353;28;20105;-93
2024/04/01 01:58:36;;;;;;;0.30;0.30;;;;;;;13.20;100.00;101614.66;10511107;28;20060;-94
2024/04/01 02:04:00;;;;;;;0.20;0.20;;;;;;;13.21;100.00;101611.16;10462247;28;20099;-93
2024/04/01 02:09:27;;;;;;;0.20;0.20;;;;;;;13.26;100.00;101604.16;10480337;28;20052;-93
2024/04/01 02:14:53;;;;;;;0.20;0.20;;;;;;;13.31;100.00;101609.59;10499457;28;20060;-94
2024/04/01 02:20:17;;;;;;;0.30;0.30;;;;;;;13.29;100.00;101609.56;10469301;28;20040;-93
2024/04/01 02:25:42;;;;;;;0.20;0.20;;;;;;;13.35;100.00;101608.75;10484557;28;20076;-94
2024/04/01 02:31:17;;;;;;;0.15;0.15;;;;;;;13.39;100.00;101610.63;10487418;28;20113;-94
2024/04/01 02:36:44;;;;;;;0.20;0.20;;;;;;;13.31;100.00;101620.19;10468637;28;20048;-93
2024/04/01 02:42:08;;;;;;;0.68;0.68;;;;;;;13.28;100.00;101612.16;10448583;28;20106;-94
2024/04/01 02:47:36;;;;;;;0.40;0.40;;;;;;;13.27;100.00;101620.97;10449016;28;20049;-92
2024/04/01 02:53:01;;;;;;;0.20;0.20;;;;;;;13.07;100.00;101631.19;10457000;28;20045;-92
2024/04/01 02:58:27;;;;;;;0.30;0.30;;;;;;;13.00;100.00;101637.22;10437906;28;20448;-89
2024/04/01 03:04:01;;;;;;;0.30;0.30;;;;;;;13.08;100.00;101643.56;10524514;28;20054;-92
2024/04/01 03:09:24;;;;;;;0.20;0.20;;;;;;;13.16;100.00;101642.91;10501486;28;20048;-90
2024/04/01 03:14:48;;;;;;;0.15;0.15;;;;;;;13.14;100.00;101651.69;10532170;28;20534;-93
2024/04/01 03:20:25;;;;;;;0.20;0.20;;;;;;;13.01;100.00;101649.59;10505901;28;20046;-94
2024/04/01 03:25:54;;;;;;;0.35;0.35;;;;;;;13.00;100.00;101646.06;10513212;28;20059;-92
2024/04/01 03:31:19;;;;;;;3.50;1.65;;;;;;;13.07;100.00;101640.03;10519474;28;20059;-94
2024/04/01 03:36:44;;;;;;;0.20;0.20;;;;;;;13.00;100.00;101639.88;10508968;28;20054;-94
2024/04/01 03:42:08;;;;;;;0.50;0.50;;;;;;;12.85;100.00;101647.53;10526991;28;20050;-94
2024/04/01 03:47:34;;;;;;;0.20;0.20;;;;;;;12.70;100.00;101666.66;10514258;28;20052;-92
2024/04/01 03:52:58;;;;;;;0.20;0.20;;;;;;;12.69;100.00;101660.44;10517418;28;20044;-92
2024/04/01 03:58:20;;;;;;;0.20;0.20;;;;;;;12.76;100.00;101659.72;10517836;28;20059;-93
2024/04/01 04:03:46;;;;;;;0.30;0.30;;;;;;;12.91;100.00;101659.16;10505086;28;20082;-92
2024/04/01 04:09:15;;;;;;;0.20;0.20;;;;;;;13.05;100.00;101656.78;10528055;28;20059;-92
2024/04/01 04:14:39;;;;;;;0.73;0.73;;;;;;;13.03;100.00;101661.16;10528097;28;20491;-92
2024/04/01 04:20:04;;;;;;;0.20;0.20;;;;;;;13.29;100.00;101662.59;10502756;28;20043;-90
2024/04/01 04:25:28;;;;;;;0.25;0.25;;;;;;;13.83;100.00;101673.31;10518292;28;20044;-89
2024/04/01 04:30:51;;;;;;;0.50;0.50;;;;;;;14.73;100.00;101669.38;10528650;28;20036;-91
2024/04/01 04:42:54;;;;;;;0.20;0.20;;;;;;;17.13;94.86;101663.44;10526626;28;20094;-91
2024/04/01 04:48:17;;;;;;;0.20;0.20;;;;;;;18.46;80.99;101662.63;10503566;28;20046;-91
2024/04/01 04:53:40;;;;;;;0.20;0.20;;;;;;;19.65;69.87;101664.81;10513529;28;20040;-91
2024/04/01 04:59:10;;;;;;;0.20;0.20;;;;;;;20.88;61.39;101661.84;10526045;28;20052;-92
2024/04/01 05:04:34;;;;;;;0.20;0.20;;;;;;;22.07;53.82;101669.09;10521182;28;20146;-90
2024/04/01 05:09:57;;;;;;;0.20;0.20;;;;;;;23.35;49.16;101670.16;10522341;28;20079;-92
2024/04/01 05:15:22;;;;;;;0.20;0.20;;;;;;;24.62;45.73;101662.47;10520797;28;20348;-93
2024/04/01 05:20:46;;;;;;;0.20;0.20;;;;;;;25.52;43.28;101666.09;10535824;28;20059;-93
2024/04/01 05:26:13;;;;;;;0.43;0.43;;;;;;;26.82;40.85;101662.53;10516496;28;20443;-92
2024/04/01 05:31:37;;;;;;;0.40;0.40;;;;;;;27.90;38.90;101650.13;10517334;28;20044;-94
2024/04/01 05:37:00;;;;;;;0.20;0.20;;;;;;;28.66;37.74;101647.72;10520423;28;20667;-93
2024/04/01 05:42:23;;;;;;;0.20;0.20;;;;;;;29.57;36.63;101653.41;10516784;28;20043;-96
2024/04/01 05:47:49;;;;;;;0.10;0.10;;;;;;;30.51;35.16;101645.88;10507528;28;20048;-94
2024/04/01 05:53:14;;;;;;;0.10;0.10;;;;;;;31.50;34.05;101652.19;10531978;28;20050;-94
2024/04/01 05:58:42;;;;;;;0.10;0.10;;;;;;;32.30;32.65;101646.53;10515588;28;20062;-93
2024/04/01 06:04:13;;;;;;;1.75;1.15;;;;;;;32.60;32.55;101634.69;10473273;28;20543;-94
2024/04/01 06:09:38;;;;;;;0.30;0.30;;;;;;;33.34;31.69;101645.50;10482895;28;20036;-95
2024/04/01 06:15:01;;;;;;;0.17;0.17;;;;;;;33.70;31.17;101634.81;10478491;28;20044;-95
2024/04/01 06:20:28;;;;;;;0.90;0.75;;;;;;;34.68;30.41;101632.56;10466672;28;20049;-96
2024/04/01 06:25:51;;;;;;;0.20;0.20;;;;;;;35.57;29.56;101635.22;10471496;28;20089;-96
2024/04/01 06:31:14;;;;;;;0.40;0.40;;;;;;;36.17;28.77;101637.06;10491338;28;20125;-96
2024/04/01 06:36:41;;;;;;;0.10;0.10;;;;;;;36.92;27.71;101638.34;10477936;28;20052;-95
2024/04/01 06:42:07;;;;;;;0.30;0.30;;;;;;;37.41;27.14;101640.75;10498158;28;20571;-95
2024/04/01 06:47:30;;;;;;;1.03;1.03;;;;;;;36.91;27.97;101639.34;10468030;28;20160;-94
2024/04/01 06:52:55;;;;;;;0.20;0.20;;;;;;;37.03;27.69;101632.84;10474951;28;20049;-93
2024/04/01 06:58:18;;;;;;;0.17;0.17;;;;;;;37.18;27.34;101639.00;10473304;28;20044;-95
2024/04/01 07:03:42;;;;;;;0.10;0.10;;;;;;;37.28;27.51;101630.88;10504585;28;20044;-95
2024/04/01 07:09:09;;;;;;;0.10;0.10;;;;;;;37.32;27.63;101632.34;10521327;28;20120;-95
2024/04/01 07:14:34;;;;;;;0.15;0.10;;;;;;;37.61;27.31;101640.97;10493976;28;20063;-94
2024/04/01 07:20:01;;;;;;;0.15;0.15;;;;;;;37.56;26.98;101645.94;10466654;28;20048;-96
2024/04/01 07:25:36;;;;;;;0.35;0.35;;;;;;;36.98;27.53;101636.97;10476124;28;20040;-95
2024/04/01 07:31:04;;;;;;;0.47;0.47;;;;;;;37.35;27.09;101643.13;10489556;28;20044;-92
2024/04/01 07:36:27;;;;;;;1.30;1.20;;;;;;;37.54;27.14;101650.72;10465564;28;20731;-91
2024/04/01 07:41:51;;;;;;;0.15;0.15;;;;;;;37.80;27.56;101646.69;10492741;28;20505;-85
2024/04/01 07:47:14;;;;;;;0.10;0.10;;;;;;;38.79;26.60;101657.38;10469234;28;20048;-87
2024/04/01 07:52:37;;;;;;;1.63;1.52;;;;;;;39.25;26.22;101655.03;10478926;28;20052;-88
2024/04/01 07:58:01;;;;;;;0.10;0.10;;;;;;;39.72;25.99;101652.53;10481837;28;20398;-86
2024/04/01 08:03:24;;;;;;;0.22;0.15;;;;;;;39.89;25.54;101654.63;10455269;28;20052;-88
2024/04/01 08:08:47;;;;;;;0.10;0.10;;;;;;;40.06;25.21;101656.66;10481354;28;20040;-86
2024/04/01 08:14:11;;;;;;;0.40;0.40;;;;;;;39.89;25.22;101660.16;10483303;28;20488;-87
2024/04/01 08:19:33;;;;;;;0.10;0.10;;;;;;;38.75;26.17;101653.13;10511074;28;20044;-87
2024/04/01 08:24:56;;;;;;;0.10;0.10;;;;;;;38.29;26.72;101648.88;10487428;28;20067;-87
2024/04/01 08:30:22;;;;;;;0.40;0.40;;;;;;;39.23;25.51;101648.75;10481308;28;20095;-87
2024/04/01 08:35:44;;;;;;;15.68;4.75;;;;;;;38.65;23.54;101645.69;10478266;28;20515;-70
2024/04/01 08:41:13;;;;;;;18.42;5.30;;;;;;;33.15;31.97;101635.69;10489219;28;20121;-78
2024/04/01 08:46:40;;;;;;;16.48;4.43;;;;;;;32.93;32.99;101639.91;10472480;28;20055;-79
2024/04/01 08:52:04;;;;;;;16.20;5.38;;;;;;;32.93;32.51;101632.59;10462675;28;20605;-80
2024/04/01 08:57:27;;;;;;;24.23;5.47;;;;;;;32.93;33.02;101628.97;10485871;28;20048;-80
2024/04/01 09:02:51;;;;;;;20.92;4.95;;;;;;;33.08;34.36;101623.38;10498676;28;20048;-79
2024/04/01 09:08:14;;;;;;;18.80;4.57;;;;;;;33.21;34.29;101620.78;10485140;28;20048;-80
2024/04/01 09:13:36;;;;;;;19.00;4.35;;;;;;;33.35;34.87;101620.72;10480788;28;20049;-80
2024/04/01 09:19:07;;;;;;;8.63;3.22;;;;;;;33.58;34.27;101620.09;10480874;28;20044;-80
2024/04/01 09:24:29;;;;;;;2.70;2.10;;;;;;;33.59;34.90;101608.16;10480476;28;20048;-80
2024/04/01 09:29:52;;;;;;;1.05;1.05;;;;;;;33.65;33.85;101601.38;10480415;28;20110;-81
2024/04/01 09:35:17;;;;;;;0.00;0.00;;;;;;;33.57;33.68;101618.31;10466364;28;20052;-80
2024/04/01 09:40:39;;;;;;;0.10;0.10;;;;;;;33.55;33.57;101617.53;10466478;28;20056;-81
2024/04/01 09:46:02;;;;;;;0.28;0.28;;;;;;;33.48;33.35;101624.41;10517548;28;20048;-81
2024/04/01 09:51:28;;;;;;;0.00;0.00;;;;;;;33.35;33.66;101615.22;10502709;28;20055;-81
2024/04/01 09:57:29;;;;;;;0.67;0.33;;;;;;;33.01;34.50;101615.69;10424395;28;20051;-80
2024/04/01 10:03:37;;;;;;;0.10;0.10;;;;;;;32.85;35.33;101618.50;10433436;28;20054;-80
2024/04/01 10:09:43;;;;;;;0.00;0.00;;;;;;;32.82;35.89;101618.72;10473857;28;20052;-80
2024/04/01 10:15:53;;;;;;;0.10;0.10;;;;;;;32.54;36.29;101626.88;10464926;28;20051;-79
2024/04/01 10:21:37;;;;;;;0.00;0.00;;;;;;;32.34;37.68;101626.25;10293379;28;20513;-80
2024/04/01 10:27:35;;;;;;;0.43;0.43;;;;;;;32.39;37.73;101621.38;10328610;28;20046;-80
2024/04/01 10:33:46;;;;;;;0.05;0.05;;;;;;;32.32;38.44;101617.25;10325528;28;20766;-80
2024/04/01 10:39:59;;;;;;;0.20;0.20;;;;;;;32.24;38.85;101607.75;10336731;28;20081;-79
2024/04/01 10:45:52;;;;;;;0.05;0.05;;;;;;;32.11;39.24;101610.31;10141740;29;20520;-79
2024/04/01 10:51:57;;;;;;;0.10;0.10;;;;;;;31.84;40.05;101604.66;10158300;29;20152;-81
2024/04/01 10:57:44;;;;;;;3.85;2.10;;;;;;;31.41;40.85;101591.75;10284806;28;20049;-79
2024/04/01 11:03:42;;;;;;;0.00;0.00;;;;;;;31.18;41.63;101590.34;10337515;28;20136;-79
2024/04/01 11:09:22;;;;;;;0.00;0.00;;;;;;;31.17;41.42;101572.25;10333426;28;20129;-80
2024/04/01 11:14:49;;;;;;;0.00;0.00;;;;;;;31.10;40.99;101574.44;10402798;28;20049;-80
2024/04/01 11:20:35;;;;;;;36.65;6.95;;;;;;;31.28;44.99;101567.03;10488252;28;20139;-78
2024/04/01 11:26:27;;;;;;;14.00;5.40;;;;;;;31.23;43.04;101559.13;10413354;28;20048;-82
2024/04/01 11:31:59;;;;;;;16.48;6.43;;;;;;;30.68;45.44;101564.03;10464735;28;20052;-78
2024/04/01 11:37:32;;;;;;;16.52;6.30;;;;;;;30.12;47.28;101552.59;10457721;28;20048;-81
2024/04/01 11:42:59;;;;;;;14.13;6.22;;;;;;;29.70;49.00;101551.13;10454928;28;20403;-79
2024/04/01 11:48:23;;;;;;;11.52;5.78;;;;;;;29.31;50.98;101543.09;10459210;28;20160;-79
2024/04/01 11:53:46;;;;;;;9.18;5.78;;;;;;;29.03;51.53;101543.56;10472224;28;20496;-80
2024/04/01 11:59:11;;;;;;;13.68;5.63;;;;;;;28.67;51.23;101539.88;10433225;28;20049;-79
2024/04/01 12:04:35;;;;;;;13.65;5.63;;;;;;;28.30;51.28;101536.13;10464063;28;20072;-79
2024/04/01 12:09:57;;;;;;;11.90;5.95;;;;;;;28.02;56.96;101530.16;10469196;28;20063;-79
2024/04/01 12:15:22;;;;;;;12.90;5.13;;;;;;;27.94;59.20;101525.06;10459503;28;20945;-80
2024/04/01 12:20:45;;;;;;;11.20;5.78;;;;;;;27.82;55.86;101520.19;10432705;28;20045;-79
2024/04/01 12:26:10;;;;;;;7.90;5.30;;;;;;;27.74;55.97;101523.22;10433059;28;20052;-80
2024/04/01 12:31:37;;;;;;;13.82;5.53;;;;;;;27.72;56.68;101516.97;10461698;28;20079;-80
2024/04/01 12:37:01;;;;;;;12.82;5.63;;;;;;;27.58;58.47;101516.69;10468234;28;20048;-79
2024/04/01 12:42:23;;;;;;;11.02;4.90;;;;;;;27.49;57.25;101518.88;10475490;28;20057;-80
2024/04/01 12:47:47;;;;;;;11.18;5.47;;;;;;;27.36;58.99;101513.09;10440135;28;20048;-81
2024/04/01 12:53:32;;;;;;;15.25;5.20;;;;;;;27.30;55.93;101506.09;10472540;28;20051;-80
2024/04/01 12:59:06;;;;;;;12.13;5.75;;;;;;;27.57;54.86;101506.78;10480779;28;20062;-81
2024/04/01 13:04:51;;;;;;;14.15;5.50;;;;;;;27.33;55.15;101503.25;10467569;28;20386;-82
2024/04/01 13:10:21;;;;;;;10.38;5.40;;;;;;;27.13;55.22;101488.75;10466204;28;20094;-82
2024/04/01 13:15:50;;;;;;;13.55;6.07;;;;;;;26.95;54.45;101496.72;10467327;28;20045;-83
2024/04/01 13:21:23;;;;;;;15.23;5.20;;;;;;;26.91;52.38;101488.78;10466737;28;20547;-82
2024/04/01 13:26:49;;;;;;;12.13;4.65;;;;;;;26.84;50.22;101481.78;10465934;28;20435;-82
2024/04/01 13:32:22;;;;;;;11.80;5.03;;;;;;;26.77;49.22;101480.28;10467077;28;20370;-84
2024/04/01 13:37:56;;;;;;;17.85;5.55;;;;;;;26.73;47.74;101474.06;10480060;28;20053;-85
2024/04/01 13:43:39;;;;;;;14.68;6.20;;;;;;;26.71;47.40;101476.00;10480706;28;20052;-85
2024/04/01 13:49:27;;;;;;;15.27;5.97;;;;;;;26.63;47.74;101463.69;10466734;28;20447;-82
2024/04/01 13:55:02;;;;;;;15.60;6.32;;;;;;;26.56;49.47;101472.06;10458924;28;20056;-81
2024/04/01 14:00:30;;;;;;;15.38;5.50;;;;;;;26.43;47.65;101462.63;10485775;28;20101;-84
2024/04/01 14:06:15;;;;;;;13.95;5.90;;;;;;;26.43;47.74;101464.47;10459133;28;20064;-79
2024/04/01 14:11:53;;;;;;;14.50;4.68;;;;;;;26.34;44.97;101453.97;10451590;28;20040;-83
2024/04/01 14:17:40;;;;;;;15.07;5.03;;;;;;;26.21;44.86;101456.25;10463605;28;20281;-83
2024/04/01 14:23:06;;;;;;;14.70;4.80;;;;;;;26.14;44.99;101449.28;10456398;28;20060;-87
2024/04/01 14:28:31;;;;;;;14.43;4.68;;;;;;;26.06;42.88;101444.16;10469888;28;20083;-82
2024/04/01 14:33:54;;;;;;;16.58;5.63;;;;;;;26.02;41.29;101450.63;10460036;28;20113;-87
2024/04/01 14:39:16;;;;;;;13.23;5.57;;;;;;;26.03;41.56;101446.09;10474507;28;20048;-88
2024/04/01 14:44:42;;;;;;;15.63;6.15;;;;;;;26.00;42.05;101448.91;10459445;28;20037;-89
2024/04/01 14:50:06;;;;;;;12.85;4.72;;;;;;;26.02;42.27;101453.34;10466200;28;20059;-82
2024/04/01 14:55:28;;;;;;;20.58;5.22;;;;;;;26.15;42.92;101449.22;10458150;28;20053;-81
2024/04/01 15:00:54;;;;;;;16.70;4.85;;;;;;;26.03;42.27;101441.59;10461282;28;20044;-80
2024/04/01 15:06:21;;;;;;;13.18;5.68;;;;;;;25.71;43.52;101450.00;10462867;28;20044;-81
2024/04/01 15:11:46;;;;;;;12.77;5.05;;;;;;;25.52;45.59;101447.03;10476208;28;20099;-82
2024/04/01 15:17:12;;;;;;;19.05;5.32;;;;;;;25.14;48.02;101447.47;10456446;28;20136;-83
2024/04/01 15:22:36;;;;;;;21.45;7.95;;;;;;;24.74;50.97;101447.88;10476096;28;20052;-83
2024/04/01 15:28:00;;;;;;;22.33;11.13;;;;;;;24.42;54.27;101449.72;10462757;28;20235;-81
2024/04/01 15:33:24;;;;;;;16.30;7.20;;;;;;;24.21;56.16;101440.50;10462992;28;20056;-82
2024/04/01 15:38:50;;;;;;;22.77;9.60;;;;;;;24.06;57.95;101451.69;10462022;28;20056;-81
2024/04/01 15:44:15;;;;;;;38.03;14.07;;;;;;;23.94;64.14;101446.66;10463689;28;20058;-82
2024/04/01 15:49:42;;;;;;;32.88;12.77;;;;;;;23.77;71.46;101439.03;10443299;28;20114;-80
2024/04/01 15:55:06;;;;;;;29.88;11.50;;;;;;;23.61;77.57;101439.50;10456348;28;20045;-81
2024/04/01 16:00:30;;;;;;;24.10;9.18;;;;;;;23.47;80.34;101442.56;10476677;28;20049;-81
2024/04/01 16:05:55;;;;;;;22.38;8.75;;;;;;;23.42;83.43;101434.59;10476794;28;20052;-80
2024/04/01 16:11:18;;;;;;;17.13;10.52;;;;;;;23.32;87.41;101430.34;10469913;28;20049;-81
2024/04/01 16:16:43;;;;;;;20.00;9.75;;;;;;;23.26;92.65;101435.91;10468229;28;20577;-81
2024/04/01 16:22:11;;;;;;;18.70;9.10;;;;;;;23.13;96.79;101429.06;10483731;28;20060;-81
2024/04/01 16:27:38;;;;;;;19.42;12.00;;;;;;;23.02;98.73;101434.72;10457250;28;20078;-82
2024/04/01 16:33:03;;;;;;;20.90;13.00;;;;;;;22.89;99.83;101433.25;10470083;28;20052;-80
2024/04/01 16:38:32;;;;;;;22.50;10.88;;;;;;;22.60;100.00;101433.91;10482718;28;20522;-81
2024/04/01 16:43:55;;;;;;;25.40;11.50;;;;;;;22.26;100.00;101441.84;10483264;28;20105;-80
2024/04/01 16:49:18;;;;;;;19.25;7.95;;;;;;;22.14;100.00;101443.91;10483334;28;20110;-81
2024/04/01 16:54:43;;;;;;;24.83;8.27;;;;;;;22.13;97.56;101443.03;10468828;28;20068;-80
2024/04/01 17:00:07;;;;;;;19.73;9.48;;;;;;;22.05;96.72;101447.72;10482834;28;20045;-80
2024/04/01 17:05:30;;;;;;;21.27;8.10;;;;;;;21.76;97.28;101448.25;10468611;28;20052;-80
2024/04/01 17:10:54;;;;;;;18.08;7.75;;;;;;;21.62;97.67;101449.41;10468795;28;20052;-80
2024/04/01 17:16:19;;;;;;;23.40;9.48;;;;;;;21.50;98.68;101433.53;10465480;28;20063;-80
2024/04/01 17:21:42;;;;;;;17.50;8.80;;;;;;;21.45;97.11;101442.56;10465470;28;20037;-80
2024/04/01 17:27:07;;;;;;;14.18;7.53;;;;;;;21.31;96.13;101447.31;10479567;28;20032;-79
2024/04/01 17:32:30;;;;;;;19.27;7.05;;;;;;;21.19;95.80;101444.81;10480866;28;20059;-79
2024/04/01 17:37:53;;;;;;;21.42;9.18;;;;;;;21.16;94.76;101452.91;10481109;28;20044;-80
2024/04/01 17:43:18;;;;;;;17.40;8.23;;;;;;;21.07;94.61;101450.34;10480314;28;20054;-81
2024/04/01 17:48:41;;;;;;;22.60;9.60;;;;;;;20.97;94.68;101446.94;10467506;28;20079;-80
2024/04/01 17:54:04;;;;;;;19.80;9.60;;;;;;;20.93;95.62;101450.59;10476828;28;20564;-85
2024/04/01 17:59:41;;;;;;;22.02;9.02;;;;;;;20.79;96.89;101455.28;10472712;28;20056;-82
2024/04/01 18:05:06;;;;;;;17.25;8.52;;;;;;;20.64;97.89;101458.19;10472164;28;20082;-81
2024/04/01 18:10:28;;;;;;;17.80;8.02;;;;;;;20.37;98.94;101459.47;10465385;28;20051;-82
2024/04/01 18:15:52;;;;;;;20.17;8.75;;;;;;;20.10;100.00;101465.13;10456520;28;20051;-79
2024/04/01 18:21:17;;;;;;;17.00;7.70;;;;;;;19.99;100.00;101453.66;10468232;28;20048;-83
2024/04/01 18:26:40;;;;;;;20.92;7.95;;;;;;;20.01;99.37;101468.84;10481670;28;20056;-78
2024/04/01 18:32:05;;;;;;;21.00;9.38;;;;;;;20.03;98.70;101471.47;10470946;28;20037;-80
2024/04/01 18:37:28;;;;;;;21.85;8.27;;;;;;;19.85;100.00;101453.84;10477816;28;20049;-78
2024/04/01 18:42:52;;;;;;;24.70;9.07;;;;;;;19.75;100.00;101449.50;10434660;28;20105;-79
2024/04/01 18:48:17;;;;;;;19.38;8.48;;;;;;;19.62;99.68;101446.06;10452028;28;20040;-80
2024/04/01 18:53:39;;;;;;;18.20;6.63;;;;;;;19.49;99.85;101449.78;10463167;28;20440;-77
2024/04/01 18:59:02;;;;;;;15.63;6.90;;;;;;;19.44;100.00;101440.84;10466777;28;20048;-78
2024/04/01 19:04:26;;;;;;;19.13;6.90;;;;;;;19.47;98.99;101443.53;10472249;28;20048;-80
2024/04/01 19:09:54;;;;;;;20.00;7.65;;;;;;;19.36;98.71;101450.75;10442034;28;20040;-79
2024/04/01 19:15:16;;;;;;;20.23;8.32;;;;;;;19.34;98.06;101453.44;10471808;28;20048;-81
2024/04/01 19:20:40;;;;;;;22.23;7.60;;;;;;;19.20;98.95;101444.66;10471398;28;20511;-83
2024/04/01 19:26:03;;;;;;;22.70;8.32;;;;;;;19.13;99.08;101448.28;10475649;28;20097;-82
2024/04/01 19:31:27;;;;;;;26.65;8.50;;;;;;;19.12;99.21;101446.50;10462306;28;20123;-81
2024/04/01 19:36:51;;;;;;;17.48;6.65;;;;;;;18.75;100.00;101445.91;10474831;28;20036;-82
2024/04/01 19:42:14;;;;;;;16.08;6.30;;;;;;;18.68;100.00;101439.69;10475988;28;20403;-81
2024/04/01 19:47:37;;;;;;;24.50;8.57;;;;;;;18.74;100.00;101428.06;10470852;28;20066;-81
2024/04/01 19:53:02;;;;;;;24.45;8.57;;;;;;;18.72;100.00;101435.22;10483805;28;20484;-82
2024/04/01 19:58:25;;;;;;;23.63;7.85;;;;;;;18.61;100.00;101434.41;10485029;28;20436;-82
2024/04/01 20:03:47;;;;;;;24.38;7.80;;;;;;;18.56;100.00;101433.53;10483445;28;20052;-82
2024/04/01 20:09:17;;;;;;;16.05;7.25;;;;;;;18.49;100.00;101429.09;10470528;28;20060;-81
2024/04/01 20:14:46;;;;;;;20.83;7.40;;;;;;;18.38;100.00;101426.47;10483999;28;20078;-80
2024/04/01 20:20:17;;;;;;;23.63;7.30;;;;;;;18.35;100.00;101426.50;10479157;28;20079;-83
2024/04/01 20:25:54;;;;;;;20.23;8.18;;;;;;;18.26;100.00;101424.75;10456130;28;20118;-83
2024/04/01 20:31:19;;;;;;;20.67;7.93;;;;;;;18.16;100.00;101420.38;10480943;28;20504;-83
2024/04/01 20:36:49;;;;;;;25.77;8.55;;;;;;;18.14;100.00;101423.94;10468637;28;20617;-83
2024/04/01 20:42:18;;;;;;;23.67;8.32;;;;;;;18.08;100.00;101423.97;10470537;28;20106;-82
2024/04/01 20:47:41;;;;;;;17.40;6.93;;;;;;;18.01;100.00;101427.56;10483552;28;20586;-82
2024/04/01 20:53:04;;;;;;;20.88;8.02;;;;;;;17.88;100.00;101421.38;10482833;28;20435;-83
2024/04/01 20:58:28;;;;;;;21.73;7.82;;;;;;;17.83;100.00;101413.38;10468386;28;20716;-83
2024/04/01 21:03:54;;;;;;;21.45;6.95;;;;;;;17.64;100.00;101413.47;10482402;28;20056;-82
2024/04/01 21:09:16;;;;;;;20.77;6.88;;;;;;;17.56;100.00;101404.53;10472198;28;20063;-82
2024/04/01 21:14:40;;;;;;;20.55;7.53;;;;;;;17.57;100.00;101401.88;10469176;28;20044;-82
2024/04/01 21:20:03;;;;;;;20.67;6.95;;;;;;;17.54;100.00;101401.88;10474185;28;20064;-83
2024/04/01 21:25:25;;;;;;;23.27;9.65;;;;;;;17.52;100.00;101401.00;10495524;28;20057;-82
2024/04/01 21:30:50;;;;;;;20.17;6.90;;;;;;;17.39;100.00;101389.44;10482334;28;20056;-83
2024/04/01 21:36:12;;;;;;;25.08;9.07;;;;;;;17.28;100.00;101395.69;10467440;28;20048;-83
2024/04/01 21:41:34;;;;;;;23.95;7.68;;;;;;;17.34;100.00;101393.91;10467688;28;20090;-83
2024/04/01 21:46:59;;;;;;;19.00;8.80;;;;;;;17.32;100.00;101389.47;10481057;28;20053;-83
2024/04/01 21:52:21;;;;;;;19.65;8.05;;;;;;;17.28;100.00;101382.34;10467099;28;20089;-82
2024/04/01 21:57:44;;;;;;;19.08;7.28;;;;;;;17.19;100.00;101383.28;10465748;28;20076;-81
2024/04/01 22:03:08;;;;;;;17.20;6.50;;;;;;;17.22;100.00;101382.34;10479466;28;20267;-82
2024/04/01 22:08:30;;;;;;;21.77;8.07;;;;;;;17.19;100.00;101374.38;10479599;28;20044;-82
2024/04/01 22:13:52;;;;;;;20.10;7.97;;;;;;;17.12;100.00;101371.72;10479126;28;20114;-82
2024/04/01 22:19:16;;;;;;;24.85;7.45;;;;;;;17.08;100.00;101374.38;10476789;28;20451;-82
2024/04/01 22:24:39;;;;;;;20.58;7.57;;;;;;;17.02;100.00;101369.03;10487692;28;20098;-82
2024/04/01 22:30:02;;;;;;;22.45;6.97;;;;;;;16.92;100.00;101369.97;10465722;28;20053;-82
2024/04/01 22:35:26;;;;;;;19.05;6.72;;;;;;;16.88;100.00;101369.06;10478899;28;20060;-83
2024/04/01 22:40:51;;;;;;;21.30;7.40;;;;;;;16.82;100.00;101371.72;10460096;28;20459;-83
2024/04/01 22:46:14;;;;;;;18.13;7.15;;;;;;;16.78;100.00;101367.28;10479481;28;20040;-83
2024/04/01 22:51:38;;;;;;;19.35;6.65;;;;;;;16.76;100.00;101358.41;10478625;28;20048;-83
2024/04/01 22:57:01;;;;;;;22.42;7.05;;;;;;;16.73;100.00;101356.63;10463114;28;20048;-82
2024/04/01 23:02:24;;;;;;;21.15;6.95;;;;;;;16.63;100.00;101352.19;10476900;28;20097;-83
2024/04/01 23:07:48;;;;;;;24.00;6.80;;;;;;;16.60;100.00;101345.97;10455415;28;20045;-83
2024/04/01 23:13:10;;;;;;;22.48;6.35;;;;;;;16.59;100.00;101345.03;10477123;28;20048;-82
2024/04/01 23:18:32;;;;;;;25.27;6.07;;;;;;;16.61;100.00;101337.06;10475170;28;20550;-83
2024/04/01 23:23:56;;;;;;;19.50;6.43;;;;;;;16.63;100.00;101336.19;10476880;28;20053;-83
2024/04/01 23:29:19;;;;;;;16.90;5.57;;;;;;;16.64;98.54;101337.97;10463625;28;20044;-83
2024/04/01 23:34:41;;;;;;;19.52;5.32;;;;;;;16.69;97.02;101337.94;10476492;28;20049;-83
2024/04/01 23:40:06;;;;;;;20.90;4.60;;;;;;;16.77;94.02;101322.84;10472439;28;20146;-84
2024/04/01 23:45:29;;;;;;;20.58;4.78;;;;;;;16.85;88.77;101317.50;10461355;28;20049;-82
2024/04/01 23:50:54;;;;;;;17.48;4.35;;;;;;;16.95;85.62;101314.81;10477411;28;20060;-83
2024/04/01 23:56:18;;;;;;;17.00;5.15;;;;;;;16.89;85.48;101316.59;10476082;28;20054;-84
